Pagrindinis puslapis
METAR-TAF:

METAR-TAF

Oro uostai :

Gaziantepas, Turkija

platuma: 37-05N, ilguma: 037-22E, Aukštis: 701 m

Dabartinis oras

Ataskaita buvo paskelbta 37 minutes, ne 19:20 UTC
Ramus vėjas
Temperatūra 13°C
Drėgmė 44%
Slėgis 1020 hPa
Matomumas 10 km arba daugiau
nėra debesų žemiau 1500 m ir nėra kamuolinių lietaus debesų

METAR: LTAJ 221920Z 00000KT CAVOK 13/01 Q1020 NOSIG RMK RWY10 28001KT SKC

Laikas: 22:57 (19:57 UTC)

Prognozė

Ataskaita buvo paskelbta 3 valandos ir 17 minutes, ne 16:40 UTC
Prognozė galioja nuo 22 metu 18 UTC su 23 metu 18 UTC
Vėjas 2 kt nuo kintamojo kryptimis
Matomumas 10 km arba daugiau
nėra debesų žemiau 1500 m ir nėra kamuolinių lietaus debesų
Tikimybė 30% :
Laikinai
nuo 23 metu 04 UTC su 23 metu 07 UTC
Matomumas: 4000 m
rūkana

TAF: LTAJ 221640Z 2218/2318 VRB02KT CAVOK PROB30 TEMPO 2304/2307 4000 BR

Orai ataskaitas ir orų prognozės (METAR, TAF).

turimą stotys yra geltonos ir raudonos taškus žemėlapyje.

Perkelti pele per norėdami pamatyti stoties vardą.

Tada spustelėkite, norėdami matyti oro stebėjimo ir prognozės.

Norėdami pakeisti žemėlapį: spustelėkite ant žalios mygtukų su juodo kryžiaus žemyn,; žalią mygtuką su brūkšneliu, jei norite nutolinti; arba žalių rodyklių gretimoms žemėlapius.


METAR-TAF: